Terminal Aerodrome Forecast
Issued by NWS Albany, NY

Home | Current Version | Previous Version | Text Only | Print | Product List | Glossary On
Versions: 1 2 3 4 5 6 7 8 9 10 11 12 13 14 15 16
687
FTUS41 KALY 250520
TAFGFL
TAF
KGFL 250520Z 2506/2606 VRB03KT P6SM SCT200 WS020/22025KT
     FM250800 20004KT P6SM SCT120 BKN200 WS020/24030KT
     FM251300 20008KT P6SM BKN050 BKN120
     FM251700 19010G16KT P6SM VCSH BKN050 OVC100
     FM252200 20008KT P6SM VCSH SCT020 OVC050
     FM260300 20004KT 4SM BR VCSH SCT006 BKN020=

USA.gov is the U.S. government's official web portal to all federal, state and local government web resources and services.